sensor_id;sensor_type;location;lat;lon;timestamp;P1;durP1;ratioP1;P2;durP2;ratioP2
19456;SDS011;9867;48.094;11.478;2022-08-19T00:01:39;6.30;;;5.67;;
19456;SDS011;9867;48.094;11.478;2022-08-19T00:04:08;5.70;;;5.20;;
19456;SDS011;9867;48.094;11.478;2022-08-19T00:06:39;6.10;;;5.60;;
19456;SDS011;9867;48.094;11.478;2022-08-19T00:09:10;6.77;;;5.93;;
19456;SDS011;9867;48.094;11.478;2022-08-19T00:11:40;5.90;;;5.40;;
19456;SDS011;9867;48.094;11.478;2022-08-19T00:14:09;6.70;;;6.00;;
19456;SDS011;9867;48.094;11.478;2022-08-19T00:16:40;6.37;;;5.87;;
19456;SDS011;9867;48.094;11.478;2022-08-19T00:19:09;6.17;;;5.60;;
19456;SDS011;9867;48.094;11.478;2022-08-19T00:21:37;7.07;;;5.80;;
19456;SDS011;9867;48.094;11.478;2022-08-19T00:24:06;6.77;;;6.27;;
19456;SDS011;9867;48.094;11.478;2022-08-19T00:26:35;6.50;;;6.00;;
19456;SDS011;9867;48.094;11.478;2022-08-19T00:29:04;7.20;;;6.60;;
19456;SDS011;9867;48.094;11.478;2022-08-19T00:31:34;7.13;;;6.63;;
19456;SDS011;9867;48.094;11.478;2022-08-19T00:34:02;7.07;;;6.57;;
19456;SDS011;9867;48.094;11.478;2022-08-19T00:36:30;7.57;;;7.00;;
19456;SDS011;9867;48.094;11.478;2022-08-19T00:38:59;7.47;;;6.87;;
19456;SDS011;9867;48.094;11.478;2022-08-19T00:41:27;7.23;;;6.63;;
19456;SDS011;9867;48.094;11.478;2022-08-19T00:43:57;7.30;;;6.63;;
19456;SDS011;9867;48.094;11.478;2022-08-19T00:46:26;7.00;;;6.47;;
19456;SDS011;9867;48.094;11.478;2022-08-19T00:48:55;7.60;;;6.90;;
19456;SDS011;9867;48.094;11.478;2022-08-19T00:51:24;6.53;;;6.07;;
19456;SDS011;9867;48.094;11.478;2022-08-19T00:53:55;7.27;;;6.67;;
19456;SDS011;9867;48.094;11.478;2022-08-19T00:56:25;7.43;;;6.73;;
19456;SDS011;9867;48.094;11.478;2022-08-19T00:58:53;7.53;;;6.93;;
19456;SDS011;9867;48.094;11.478;2022-08-19T01:01:23;8.47;;;7.77;;
19456;SDS011;9867;48.094;11.478;2022-08-19T01:03:51;7.10;;;6.60;;
19456;SDS011;9867;48.094;11.478;2022-08-19T01:06:25;8.30;;;7.70;;
19456;SDS011;9867;48.094;11.478;2022-08-19T01:08:53;8.60;;;7.90;;
19456;SDS011;9867;48.094;11.478;2022-08-19T01:11:21;8.60;;;7.90;;
19456;SDS011;9867;48.094;11.478;2022-08-19T01:13:49;9.37;;;7.50;;
19456;SDS011;9867;48.094;11.478;2022-08-19T01:16:20;9.80;;;8.23;;
19456;SDS011;9867;48.094;11.478;2022-08-19T01:18:51;9.40;;;8.60;;
19456;SDS011;9867;48.094;11.478;2022-08-19T01:21:22;9.07;;;8.37;;
19456;SDS011;9867;48.094;11.478;2022-08-19T01:23:59;10.07;;;8.30;;
19456;SDS011;9867;48.094;11.478;2022-08-19T01:26:27;9.13;;;8.33;;
19456;SDS011;9867;48.094;11.478;2022-08-19T01:28:58;9.43;;;8.73;;
19456;SDS011;9867;48.094;11.478;2022-08-19T01:31:28;9.20;;;8.40;;
19456;SDS011;9867;48.094;11.478;2022-08-19T01:33:58;8.87;;;8.17;;
19456;SDS011;9867;48.094;11.478;2022-08-19T01:36:29;9.40;;;8.53;;
19456;SDS011;9867;48.094;11.478;2022-08-19T01:39:01;9.37;;;8.67;;
19456;SDS011;9867;48.094;11.478;2022-08-19T01:41:36;8.57;;;7.87;;
19456;SDS011;9867;48.094;11.478;2022-08-19T01:44:05;8.20;;;7.40;;
19456;SDS011;9867;48.094;11.478;2022-08-19T01:46:45;8.77;;;7.87;;
19456;SDS011;9867;48.094;11.478;2022-08-19T01:49:16;8.37;;;7.70;;
19456;SDS011;9867;48.094;11.478;2022-08-19T01:51:46;8.33;;;7.70;;
19456;SDS011;9867;48.094;11.478;2022-08-19T01:54:17;8.00;;;7.30;;
19456;SDS011;9867;48.094;11.478;2022-08-19T01:56:53;8.33;;;7.60;;
19456;SDS011;9867;48.094;11.478;2022-08-19T01:59:25;8.30;;;7.50;;
19456;SDS011;9867;48.094;11.478;2022-08-19T02:01:53;8.17;;;7.57;;
19456;SDS011;9867;48.094;11.478;2022-08-19T02:04:21;7.50;;;6.87;;
19456;SDS011;9867;48.094;11.478;2022-08-19T02:06:49;9.07;;;8.37;;
19456;SDS011;9867;48.094;11.478;2022-08-19T02:09:18;8.00;;;7.40;;
19456;SDS011;9867;48.094;11.478;2022-08-19T02:11:47;7.73;;;7.03;;
19456;SDS011;9867;48.094;11.478;2022-08-19T02:14:14;8.33;;;7.63;;
19456;SDS011;9867;48.094;11.478;2022-08-19T02:16:42;8.20;;;7.50;;
19456;SDS011;9867;48.094;11.478;2022-08-19T02:19:10;8.37;;;7.57;;
19456;SDS011;9867;48.094;11.478;2022-08-19T02:21:38;8.20;;;7.50;;
19456;SDS011;9867;48.094;11.478;2022-08-19T02:24:06;7.90;;;7.17;;
19456;SDS011;9867;48.094;11.478;2022-08-19T02:26:35;7.07;;;6.57;;
19456;SDS011;9867;48.094;11.478;2022-08-19T02:29:03;7.70;;;7.00;;
19456;SDS011;9867;48.094;11.478;2022-08-19T02:31:31;7.47;;;6.70;;
19456;SDS011;9867;48.094;11.478;2022-08-19T02:33:59;6.83;;;6.33;;
19456;SDS011;9867;48.094;11.478;2022-08-19T02:36:27;6.90;;;6.30;;
19456;SDS011;9867;48.094;11.478;2022-08-19T02:38:56;6.67;;;6.07;;
19456;SDS011;9867;48.094;11.478;2022-08-19T02:41:24;6.57;;;6.07;;
19456;SDS011;9867;48.094;11.478;2022-08-19T02:43:55;6.63;;;6.03;;
19456;SDS011;9867;48.094;11.478;2022-08-19T02:46:44;7.20;;;6.60;;
19456;SDS011;9867;48.094;11.478;2022-08-19T02:49:16;6.93;;;6.40;;
19456;SDS011;9867;48.094;11.478;2022-08-19T02:51:45;6.73;;;6.23;;
19456;SDS011;9867;48.094;11.478;2022-08-19T02:54:14;7.30;;;6.60;;
19456;SDS011;9867;48.094;11.478;2022-08-19T02:56:42;7.07;;;6.53;;
19456;SDS011;9867;48.094;11.478;2022-08-19T02:59:12;6.83;;;6.33;;
19456;SDS011;9867;48.094;11.478;2022-08-19T03:01:40;7.03;;;6.43;;
19456;SDS011;9867;48.094;11.478;2022-08-19T03:04:09;8.10;;;6.97;;
19456;SDS011;9867;48.094;11.478;2022-08-19T03:06:39;7.50;;;6.90;;
19456;SDS011;9867;48.094;11.478;2022-08-19T03:09:09;5.93;;;5.53;;
19456;SDS011;9867;48.094;11.478;2022-08-19T03:11:37;6.90;;;6.30;;
19456;SDS011;9867;48.094;11.478;2022-08-19T03:14:06;7.07;;;6.47;;
19456;SDS011;9867;48.094;11.478;2022-08-19T03:16:44;6.90;;;5.50;;
19456;SDS011;9867;48.094;11.478;2022-08-19T03:19:15;6.70;;;6.10;;
19456;SDS011;9867;48.094;11.478;2022-08-19T03:21:44;6.37;;;5.77;;
19456;SDS011;9867;48.094;11.478;2022-08-19T03:24:13;5.60;;;5.20;;
19456;SDS011;9867;48.094;11.478;2022-08-19T03:26:42;6.07;;;5.57;;
19456;SDS011;9867;48.094;11.478;2022-08-19T03:29:11;6.27;;;5.77;;
19456;SDS011;9867;48.094;11.478;2022-08-19T03:31:52;6.23;;;5.73;;
19456;SDS011;9867;48.094;11.478;2022-08-19T03:34:22;6.27;;;5.80;;
19456;SDS011;9867;48.094;11.478;2022-08-19T03:36:52;6.70;;;5.13;;
19456;SDS011;9867;48.094;11.478;2022-08-19T03:39:21;6.10;;;5.50;;
19456;SDS011;9867;48.094;11.478;2022-08-19T03:41:51;6.23;;;5.83;;
19456;SDS011;9867;48.094;11.478;2022-08-19T03:44:42;6.30;;;5.80;;
19456;SDS011;9867;48.094;11.478;2022-08-19T03:47:12;6.60;;;6.10;;
19456;SDS011;9867;48.094;11.478;2022-08-19T03:49:43;6.73;;;6.20;;
19456;SDS011;9867;48.094;11.478;2022-08-19T03:52:11;7.10;;;6.50;;
19456;SDS011;9867;48.094;11.478;2022-08-19T03:54:39;6.13;;;5.63;;
19456;SDS011;9867;48.094;11.478;2022-08-19T03:57:07;6.07;;;5.67;;
19456;SDS011;9867;48.094;11.478;2022-08-19T03:59:36;5.93;;;5.43;;
19456;SDS011;9867;48.094;11.478;2022-08-19T04:02:06;6.30;;;5.87;;
19456;SDS011;9867;48.094;11.478;2022-08-19T04:04:38;6.10;;;5.70;;
19456;SDS011;9867;48.094;11.478;2022-08-19T04:07:10;6.40;;;5.90;;
19456;SDS011;9867;48.094;11.478;2022-08-19T04:09:42;7.43;;;5.23;;
19456;SDS011;9867;48.094;11.478;2022-08-19T04:12:09;6.83;;;6.27;;
19456;SDS011;9867;48.094;11.478;2022-08-19T04:14:37;6.23;;;5.67;;
19456;SDS011;9867;48.094;11.478;2022-08-19T04:17:05;6.60;;;5.93;;
19456;SDS011;9867;48.094;11.478;2022-08-19T04:19:34;6.10;;;5.57;;
19456;SDS011;9867;48.094;11.478;2022-08-19T04:22:04;6.60;;;6.07;;
19456;SDS011;9867;48.094;11.478;2022-08-19T04:24:33;6.77;;;6.17;;
19456;SDS011;9867;48.094;11.478;2022-08-19T04:27:02;11.43;;;10.43;;
19456;SDS011;9867;48.094;11.478;2022-08-19T04:29:31;8.50;;;7.80;;
19456;SDS011;9867;48.094;11.478;2022-08-19T04:32:00;7.87;;;7.13;;
19456;SDS011;9867;48.094;11.478;2022-08-19T04:34:35;6.30;;;5.80;;
19456;SDS011;9867;48.094;11.478;2022-08-19T04:37:25;6.50;;;6.00;;
19456;SDS011;9867;48.094;11.478;2022-08-19T04:40:02;6.57;;;6.07;;
19456;SDS011;9867;48.094;11.478;2022-08-19T04:42:49;6.63;;;6.13;;
19456;SDS011;9867;48.094;11.478;2022-08-19T04:45:17;7.23;;;6.70;;
19456;SDS011;9867;48.094;11.478;2022-08-19T04:47:48;7.33;;;6.63;;
19456;SDS011;9867;48.094;11.478;2022-08-19T04:50:39;7.17;;;6.47;;
19456;SDS011;9867;48.094;11.478;2022-08-19T04:53:10;6.70;;;6.20;;
19456;SDS011;9867;48.094;11.478;2022-08-19T04:55:39;6.70;;;6.10;;
19456;SDS011;9867;48.094;11.478;2022-08-19T04:58:08;6.90;;;6.40;;
19456;SDS011;9867;48.094;11.478;2022-08-19T05:00:37;6.43;;;5.83;;
19456;SDS011;9867;48.094;11.478;2022-08-19T05:03:06;6.60;;;6.10;;
19456;SDS011;9867;48.094;11.478;2022-08-19T05:05:37;6.80;;;6.20;;
19456;SDS011;9867;48.094;11.478;2022-08-19T05:08:12;6.73;;;6.20;;
19456;SDS011;9867;48.094;11.478;2022-08-19T05:10:56;6.23;;;5.73;;
19456;SDS011;9867;48.094;11.478;2022-08-19T05:13:24;6.57;;;5.97;;
19456;SDS011;9867;48.094;11.478;2022-08-19T05:15:53;6.80;;;6.20;;
19456;SDS011;9867;48.094;11.478;2022-08-19T05:18:22;6.70;;;6.10;;
19456;SDS011;9867;48.094;11.478;2022-08-19T05:21:09;6.53;;;6.03;;
19456;SDS011;9867;48.094;11.478;2022-08-19T05:23:57;6.23;;;5.67;;
19456;SDS011;9867;48.094;11.478;2022-08-19T05:26:25;6.60;;;6.07;;
19456;SDS011;9867;48.094;11.478;2022-08-19T05:28:54;6.13;;;5.53;;
19456;SDS011;9867;48.094;11.478;2022-08-19T05:31:22;5.83;;;5.13;;
19456;SDS011;9867;48.094;11.478;2022-08-19T05:33:50;6.90;;;6.33;;
19456;SDS011;9867;48.094;11.478;2022-08-19T05:36:18;6.80;;;6.00;;
19456;SDS011;9867;48.094;11.478;2022-08-19T05:38:46;7.10;;;6.50;;
19456;SDS011;9867;48.094;11.478;2022-08-19T05:41:17;6.90;;;6.23;;
19456;SDS011;9867;48.094;11.478;2022-08-19T05:43:45;6.60;;;6.00;;
19456;SDS011;9867;48.094;11.478;2022-08-19T05:46:16;7.10;;;6.50;;
19456;SDS011;9867;48.094;11.478;2022-08-19T05:48:53;10.00;;;6.30;;
19456;SDS011;9867;48.094;11.478;2022-08-19T05:51:23;7.80;;;6.67;;
19456;SDS011;9867;48.094;11.478;2022-08-19T05:53:54;7.53;;;6.97;;
19456;SDS011;9867;48.094;11.478;2022-08-19T05:56:24;7.00;;;6.40;;
19456;SDS011;9867;48.094;11.478;2022-08-19T05:58:52;7.50;;;6.83;;
19456;SDS011;9867;48.094;11.478;2022-08-19T06:01:24;7.80;;;7.20;;
19456;SDS011;9867;48.094;11.478;2022-08-19T06:03:53;8.03;;;7.23;;
19456;SDS011;9867;48.094;11.478;2022-08-19T06:06:21;8.10;;;7.33;;
19456;SDS011;9867;48.094;11.478;2022-08-19T06:08:49;8.30;;;7.60;;
19456;SDS011;9867;48.094;11.478;2022-08-19T06:11:19;7.90;;;7.17;;
19456;SDS011;9867;48.094;11.478;2022-08-19T06:13:50;7.97;;;7.37;;
19456;SDS011;9867;48.094;11.478;2022-08-19T06:16:25;8.37;;;7.40;;
19456;SDS011;9867;48.094;11.478;2022-08-19T06:18:54;9.00;;;7.70;;
19456;SDS011;9867;48.094;11.478;2022-08-19T06:21:25;8.07;;;7.40;;
19456;SDS011;9867;48.094;11.478;2022-08-19T06:23:55;8.50;;;7.70;;
19456;SDS011;9867;48.094;11.478;2022-08-19T06:26:23;9.43;;;8.63;;
19456;SDS011;9867;48.094;11.478;2022-08-19T06:28:54;8.53;;;7.83;;
19456;SDS011;9867;48.094;11.478;2022-08-19T06:31:24;8.60;;;7.90;;
19456;SDS011;9867;48.094;11.478;2022-08-19T06:33:53;8.47;;;7.77;;
19456;SDS011;9867;48.094;11.478;2022-08-19T06:36:22;9.07;;;8.27;;
19456;SDS011;9867;48.094;11.478;2022-08-19T06:38:53;9.33;;;8.57;;
19456;SDS011;9867;48.094;11.478;2022-08-19T06:41:21;9.63;;;8.63;;
19456;SDS011;9867;48.094;11.478;2022-08-19T06:43:49;10.13;;;8.90;;
19456;SDS011;9867;48.094;11.478;2022-08-19T06:46:20;10.03;;;9.03;;
19456;SDS011;9867;48.094;11.478;2022-08-19T06:48:49;9.50;;;8.73;;
19456;SDS011;9867;48.094;11.478;2022-08-19T06:51:19;10.77;;;9.60;;
19456;SDS011;9867;48.094;11.478;2022-08-19T06:53:50;10.73;;;9.73;;
19456;SDS011;9867;48.094;11.478;2022-08-19T06:56:22;10.23;;;8.73;;
19456;SDS011;9867;48.094;11.478;2022-08-19T06:58:57;11.13;;;10.13;;
19456;SDS011;9867;48.094;11.478;2022-08-19T07:01:26;11.87;;;10.67;;
19456;SDS011;9867;48.094;11.478;2022-08-19T07:03:54;12.30;;;11.20;;
19456;SDS011;9867;48.094;11.478;2022-08-19T07:06:23;11.50;;;10.40;;
19456;SDS011;9867;48.094;11.478;2022-08-19T07:09:10;11.57;;;10.47;;
19456;SDS011;9867;48.094;11.478;2022-08-19T07:11:44;11.33;;;10.33;;
19456;SDS011;9867;48.094;11.478;2022-08-19T07:14:13;12.67;;;11.57;;
19456;SDS011;9867;48.094;11.478;2022-08-19T07:16:46;12.20;;;11.20;;
19456;SDS011;9867;48.094;11.478;2022-08-19T07:19:16;12.73;;;11.40;;
19456;SDS011;9867;48.094;11.478;2022-08-19T07:21:45;13.07;;;11.87;;
19456;SDS011;9867;48.094;11.478;2022-08-19T07:24:16;11.63;;;10.63;;
19456;SDS011;9867;48.094;11.478;2022-08-19T07:26:44;12.90;;;11.73;;
19456;SDS011;9867;48.094;11.478;2022-08-19T07:29:17;14.43;;;12.37;;
19456;SDS011;9867;48.094;11.478;2022-08-19T07:31:53;12.37;;;11.13;;
19456;SDS011;9867;48.094;11.478;2022-08-19T07:34:25;14.53;;;13.23;;
19456;SDS011;9867;48.094;11.478;2022-08-19T07:36:54;14.03;;;12.73;;
19456;SDS011;9867;48.094;11.478;2022-08-19T07:39:24;13.53;;;12.13;;
19456;SDS011;9867;48.094;11.478;2022-08-19T07:41:55;16.20;;;14.57;;
19456;SDS011;9867;48.094;11.478;2022-08-19T07:44:24;17.60;;;16.00;;
19456;SDS011;9867;48.094;11.478;2022-08-19T07:46:54;17.97;;;16.17;;
19456;SDS011;9867;48.094;11.478;2022-08-19T07:49:25;20.87;;;18.87;;
19456;SDS011;9867;48.094;11.478;2022-08-19T07:51:54;19.00;;;17.27;;
19456;SDS011;9867;48.094;11.478;2022-08-19T07:54:25;17.40;;;15.90;;
19456;SDS011;9867;48.094;11.478;2022-08-19T07:56:54;17.80;;;16.17;;
19456;SDS011;9867;48.094;11.478;2022-08-19T07:59:23;17.63;;;16.07;;
19456;SDS011;9867;48.094;11.478;2022-08-19T08:01:52;19.07;;;17.37;;
19456;SDS011;9867;48.094;11.478;2022-08-19T08:04:21;18.27;;;16.67;;
19456;SDS011;9867;48.094;11.478;2022-08-19T08:07:07;19.10;;;17.10;;
19456;SDS011;9867;48.094;11.478;2022-08-19T08:09:57;18.77;;;17.07;;
19456;SDS011;9867;48.094;11.478;2022-08-19T08:12:30;19.20;;;17.50;;
19456;SDS011;9867;48.094;11.478;2022-08-19T08:15:03;21.27;;;19.27;;
19456;SDS011;9867;48.094;11.478;2022-08-19T08:17:39;21.60;;;19.60;;
19456;SDS011;9867;48.094;11.478;2022-08-19T08:20:15;20.70;;;18.63;;
19456;SDS011;9867;48.094;11.478;2022-08-19T08:22:44;20.43;;;18.53;;
19456;SDS011;9867;48.094;11.478;2022-08-19T08:25:31;21.47;;;19.27;;
19456;SDS011;9867;48.094;11.478;2022-08-19T08:28:00;21.57;;;19.50;;
19456;SDS011;9867;48.094;11.478;2022-08-19T08:30:30;21.07;;;19.07;;
19456;SDS011;9867;48.094;11.478;2022-08-19T08:33:01;21.20;;;19.30;;
19456;SDS011;9867;48.094;11.478;2022-08-19T08:35:29;21.57;;;19.57;;
19456;SDS011;9867;48.094;11.478;2022-08-19T08:37:56;19.67;;;17.87;;
19456;SDS011;9867;48.094;11.478;2022-08-19T08:40:27;21.13;;;19.03;;
19456;SDS011;9867;48.094;11.478;2022-08-19T08:42:57;19.63;;;17.63;;
19456;SDS011;9867;48.094;11.478;2022-08-19T08:45:38;20.80;;;18.77;;
19456;SDS011;9867;48.094;11.478;2022-08-19T08:48:22;21.03;;;18.93;;
19456;SDS011;9867;48.094;11.478;2022-08-19T08:51:08;22.23;;;20.03;;
19456;SDS011;9867;48.094;11.478;2022-08-19T08:53:45;20.33;;;18.43;;
19456;SDS011;9867;48.094;11.478;2022-08-19T08:56:21;21.47;;;19.40;;
19456;SDS011;9867;48.094;11.478;2022-08-19T08:58:51;20.53;;;18.63;;
19456;SDS011;9867;48.094;11.478;2022-08-19T09:01:26;21.57;;;19.57;;
19456;SDS011;9867;48.094;11.478;2022-08-19T09:03:57;21.53;;;19.47;;
19456;SDS011;9867;48.094;11.478;2022-08-19T09:06:29;18.10;;;16.40;;
19456;SDS011;9867;48.094;11.478;2022-08-19T09:09:14;20.93;;;18.80;;
19456;SDS011;9867;48.094;11.478;2022-08-19T09:11:50;19.17;;;17.13;;
19456;SDS011;9867;48.094;11.478;2022-08-19T09:14:35;19.43;;;17.57;;
19456;SDS011;9867;48.094;11.478;2022-08-19T09:17:17;18.50;;;16.73;;
19456;SDS011;9867;48.094;11.478;2022-08-19T09:19:59;20.07;;;18.07;;
19456;SDS011;9867;48.094;11.478;2022-08-19T09:22:34;20.87;;;18.80;;
19456;SDS011;9867;48.094;11.478;2022-08-19T09:25:04;20.50;;;18.60;;
19456;SDS011;9867;48.094;11.478;2022-08-19T09:27:35;21.40;;;19.07;;
19456;SDS011;9867;48.094;11.478;2022-08-19T09:30:10;20.40;;;18.30;;
19456;SDS011;9867;48.094;11.478;2022-08-19T09:32:41;19.47;;;17.57;;
19456;SDS011;9867;48.094;11.478;2022-08-19T09:35:11;20.87;;;18.87;;
19456;SDS011;9867;48.094;11.478;2022-08-19T09:37:40;25.20;;;20.97;;
19456;SDS011;9867;48.094;11.478;2022-08-19T09:40:12;21.90;;;19.67;;
19456;SDS011;9867;48.094;11.478;2022-08-19T09:42:41;23.90;;;21.40;;
19456;SDS011;9867;48.094;11.478;2022-08-19T09:45:16;23.03;;;20.60;;
19456;SDS011;9867;48.094;11.478;2022-08-19T09:47:46;23.10;;;20.77;;
19456;SDS011;9867;48.094;11.478;2022-08-19T09:50:17;20.20;;;18.27;;
19456;SDS011;9867;48.094;11.478;2022-08-19T09:52:45;22.13;;;19.97;;
19456;SDS011;9867;48.094;11.478;2022-08-19T09:55:23;21.70;;;19.43;;
19456;SDS011;9867;48.094;11.478;2022-08-19T09:57:58;21.63;;;19.43;;
19456;SDS011;9867;48.094;11.478;2022-08-19T10:00:27;21.93;;;19.70;;
19456;SDS011;9867;48.094;11.478;2022-08-19T10:02:56;22.10;;;19.90;;
19456;SDS011;9867;48.094;11.478;2022-08-19T10:05:25;20.83;;;18.73;;
19456;SDS011;9867;48.094;11.478;2022-08-19T10:08:14;22.13;;;19.53;;
19456;SDS011;9867;48.094;11.478;2022-08-19T10:10:46;21.87;;;19.57;;
19456;SDS011;9867;48.094;11.478;2022-08-19T10:13:15;20.57;;;18.47;;
19456;SDS011;9867;48.094;11.478;2022-08-19T10:15:52;20.67;;;18.63;;
19456;SDS011;9867;48.094;11.478;2022-08-19T10:18:21;20.63;;;18.63;;
19456;SDS011;9867;48.094;11.478;2022-08-19T10:20:51;20.30;;;18.20;;
19456;SDS011;9867;48.094;11.478;2022-08-19T10:23:28;21.40;;;19.17;;
19456;SDS011;9867;48.094;11.478;2022-08-19T10:25:59;20.33;;;18.33;;
19456;SDS011;9867;48.094;11.478;2022-08-19T10:28:27;18.63;;;16.83;;
19456;SDS011;9867;48.094;11.478;2022-08-19T10:30:55;18.00;;;16.20;;
19456;SDS011;9867;48.094;11.478;2022-08-19T10:33:23;17.83;;;16.13;;
19456;SDS011;9867;48.094;11.478;2022-08-19T10:36:14;15.83;;;14.33;;
19456;SDS011;9867;48.094;11.478;2022-08-19T10:38:44;15.00;;;13.60;;
19456;SDS011;9867;48.094;11.478;2022-08-19T10:41:22;11.27;;;10.17;;
19456;SDS011;9867;48.094;11.478;2022-08-19T10:43:52;10.60;;;9.60;;
19456;SDS011;9867;48.094;11.478;2022-08-19T10:46:29;9.83;;;9.03;;
19456;SDS011;9867;48.094;11.478;2022-08-19T10:48:58;10.37;;;9.37;;
19456;SDS011;9867;48.094;11.478;2022-08-19T10:51:29;10.50;;;9.57;;
19456;SDS011;9867;48.094;11.478;2022-08-19T10:54:15;9.30;;;8.40;;
19456;SDS011;9867;48.094;11.478;2022-08-19T10:56:58;8.03;;;7.33;;
19456;SDS011;9867;48.094;11.478;2022-08-19T10:59:26;7.70;;;7.10;;
19456;SDS011;9867;48.094;11.478;2022-08-19T11:02:02;8.10;;;7.40;;
19456;SDS011;9867;48.094;11.478;2022-08-19T11:04:31;7.97;;;7.17;;
19456;SDS011;9867;48.094;11.478;2022-08-19T11:07:02;7.67;;;6.97;;
19456;SDS011;9867;48.094;11.478;2022-08-19T11:09:36;7.77;;;7.17;;
19456;SDS011;9867;48.094;11.478;2022-08-19T11:12:06;7.70;;;7.10;;
19456;SDS011;9867;48.094;11.478;2022-08-19T11:14:36;7.50;;;6.90;;
19456;SDS011;9867;48.094;11.478;2022-08-19T11:17:04;7.53;;;6.93;;
19456;SDS011;9867;48.094;11.478;2022-08-19T11:19:33;11.60;;;10.50;;
19456;SDS011;9867;48.094;11.478;2022-08-19T11:22:03;13.13;;;11.83;;
19456;SDS011;9867;48.094;11.478;2022-08-19T11:24:34;11.80;;;10.80;;
19456;SDS011;9867;48.094;11.478;2022-08-19T11:27:05;10.57;;;9.63;;
19456;SDS011;9867;48.094;11.478;2022-08-19T11:29:38;9.67;;;8.87;;
19456;SDS011;9867;48.094;11.478;2022-08-19T11:32:07;9.70;;;8.70;;
19456;SDS011;9867;48.094;11.478;2022-08-19T11:34:37;7.67;;;7.03;;
19456;SDS011;9867;48.094;11.478;2022-08-19T11:37:07;7.53;;;6.93;;
19456;SDS011;9867;48.094;11.478;2022-08-19T11:39:35;6.50;;;6.00;;
19456;SDS011;9867;48.094;11.478;2022-08-19T11:42:07;6.83;;;6.30;;
19456;SDS011;9867;48.094;11.478;2022-08-19T11:44:49;6.80;;;6.30;;
19456;SDS011;9867;48.094;11.478;2022-08-19T11:47:18;6.10;;;5.60;;
19456;SDS011;9867;48.094;11.478;2022-08-19T11:49:47;6.67;;;6.07;;
19456;SDS011;9867;48.094;11.478;2022-08-19T11:52:16;5.43;;;5.03;;
19456;SDS011;9867;48.094;11.478;2022-08-19T11:54:44;5.77;;;5.27;;
19456;SDS011;9867;48.094;11.478;2022-08-19T11:57:12;5.80;;;5.40;;
19456;SDS011;9867;48.094;11.478;2022-08-19T11:59:49;5.47;;;5.07;;
19456;SDS011;9867;48.094;11.478;2022-08-19T12:02:19;4.60;;;4.30;;
19456;SDS011;9867;48.094;11.478;2022-08-19T12:04:48;3.20;;;3.00;;
19456;SDS011;9867;48.094;11.478;2022-08-19T12:07:17;3.23;;;3.03;;
19456;SDS011;9867;48.094;11.478;2022-08-19T12:09:45;3.53;;;3.23;;
19456;SDS011;9867;48.094;11.478;2022-08-19T12:12:14;3.07;;;2.87;;
19456;SDS011;9867;48.094;11.478;2022-08-19T12:14:42;2.33;;;2.23;;
19456;SDS011;9867;48.094;11.478;2022-08-19T12:17:11;2.10;;;2.00;;
19456;SDS011;9867;48.094;11.478;2022-08-19T12:19:39;1.90;;;1.80;;
19456;SDS011;9867;48.094;11.478;2022-08-19T12:22:07;2.37;;;2.17;;
19456;SDS011;9867;48.094;11.478;2022-08-19T12:24:36;2.10;;;2.00;;
19456;SDS011;9867;48.094;11.478;2022-08-19T12:27:04;2.10;;;2.00;;
19456;SDS011;9867;48.094;11.478;2022-08-19T12:29:38;1.90;;;1.80;;
19456;SDS011;9867;48.094;11.478;2022-08-19T12:32:06;2.50;;;2.30;;
19456;SDS011;9867;48.094;11.478;2022-08-19T12:34:37;1.77;;;1.67;;
19456;SDS011;9867;48.094;11.478;2022-08-19T12:37:06;1.70;;;1.60;;
19456;SDS011;9867;48.094;11.478;2022-08-19T12:39:36;1.70;;;1.60;;
19456;SDS011;9867;48.094;11.478;2022-08-19T12:42:07;1.63;;;1.53;;
19456;SDS011;9867;48.094;11.478;2022-08-19T12:44:35;1.60;;;1.50;;
19456;SDS011;9867;48.094;11.478;2022-08-19T12:47:08;1.80;;;1.70;;
19456;SDS011;9867;48.094;11.478;2022-08-19T12:49:38;1.50;;;1.40;;
19456;SDS011;9867;48.094;11.478;2022-08-19T12:52:21;1.90;;;1.60;;
19456;SDS011;9867;48.094;11.478;2022-08-19T12:54:51;1.80;;;1.70;;
19456;SDS011;9867;48.094;11.478;2022-08-19T12:57:21;2.00;;;1.90;;
19456;SDS011;9867;48.094;11.478;2022-08-19T12:59:58;2.20;;;2.00;;
19456;SDS011;9867;48.094;11.478;2022-08-19T13:02:31;1.50;;;1.40;;
19456;SDS011;9867;48.094;11.478;2022-08-19T13:05:05;1.70;;;1.60;;
19456;SDS011;9867;48.094;11.478;2022-08-19T13:07:35;2.97;;;2.77;;
19456;SDS011;9867;48.094;11.478;2022-08-19T13:10:07;1.70;;;1.60;;
19456;SDS011;9867;48.094;11.478;2022-08-19T13:12:37;2.37;;;2.17;;
19456;SDS011;9867;48.094;11.478;2022-08-19T13:15:05;2.00;;;1.90;;
19456;SDS011;9867;48.094;11.478;2022-08-19T13:17:36;2.00;;;1.90;;
19456;SDS011;9867;48.094;11.478;2022-08-19T13:20:05;2.00;;;1.70;;
19456;SDS011;9867;48.094;11.478;2022-08-19T13:22:35;2.20;;;2.10;;
19456;SDS011;9867;48.094;11.478;2022-08-19T13:25:03;2.00;;;1.90;;
19456;SDS011;9867;48.094;11.478;2022-08-19T13:27:34;1.83;;;1.73;;
19456;SDS011;9867;48.094;11.478;2022-08-19T13:30:02;2.33;;;2.17;;
19456;SDS011;9867;48.094;11.478;2022-08-19T13:32:49;2.20;;;2.10;;
19456;SDS011;9867;48.094;11.478;2022-08-19T13:35:35;2.03;;;1.93;;
19456;SDS011;9867;48.094;11.478;2022-08-19T13:38:03;2.47;;;2.00;;
19456;SDS011;9867;48.094;11.478;2022-08-19T13:40:38;2.20;;;2.10;;
19456;SDS011;9867;48.094;11.478;2022-08-19T13:43:08;2.47;;;2.30;;
19456;SDS011;9867;48.094;11.478;2022-08-19T13:45:48;2.20;;;2.10;;
19456;SDS011;9867;48.094;11.478;2022-08-19T13:48:22;2.47;;;2.27;;
19456;SDS011;9867;48.094;11.478;2022-08-19T13:50:52;3.10;;;2.90;;
19456;SDS011;9867;48.094;11.478;2022-08-19T13:53:21;2.93;;;2.70;;
19456;SDS011;9867;48.094;11.478;2022-08-19T13:55:51;3.03;;;2.83;;
19456;SDS011;9867;48.094;11.478;2022-08-19T13:58:19;3.10;;;2.90;;
19456;SDS011;9867;48.094;11.478;2022-08-19T14:00:48;2.73;;;2.53;;
19456;SDS011;9867;48.094;11.478;2022-08-19T14:03:16;3.47;;;3.27;;
19456;SDS011;9867;48.094;11.478;2022-08-19T14:05:44;3.37;;;3.17;;
19456;SDS011;9867;48.094;11.478;2022-08-19T14:08:13;3.20;;;3.00;;
19456;SDS011;9867;48.094;11.478;2022-08-19T14:10:41;3.23;;;3.03;;
19456;SDS011;9867;48.094;11.478;2022-08-19T14:13:12;2.80;;;2.60;;
19456;SDS011;9867;48.094;11.478;2022-08-19T14:15:42;3.10;;;2.90;;
19456;SDS011;9867;48.094;11.478;2022-08-19T14:18:11;3.20;;;3.00;;
19456;SDS011;9867;48.094;11.478;2022-08-19T14:20:39;3.10;;;2.90;;
19456;SDS011;9867;48.094;11.478;2022-08-19T14:23:07;2.77;;;2.57;;
19456;SDS011;9867;48.094;11.478;2022-08-19T14:25:35;3.60;;;2.60;;
19456;SDS011;9867;48.094;11.478;2022-08-19T14:28:03;2.63;;;2.43;;
19456;SDS011;9867;48.094;11.478;2022-08-19T14:30:35;2.30;;;2.20;;
19456;SDS011;9867;48.094;11.478;2022-08-19T14:33:04;2.40;;;2.30;;
19456;SDS011;9867;48.094;11.478;2022-08-19T14:35:34;3.33;;;3.03;;
19456;SDS011;9867;48.094;11.478;2022-08-19T14:38:03;2.27;;;2.10;;
19456;SDS011;9867;48.094;11.478;2022-08-19T14:40:33;2.43;;;1.87;;
19456;SDS011;9867;48.094;11.478;2022-08-19T14:43:02;2.20;;;2.10;;
19456;SDS011;9867;48.094;11.478;2022-08-19T14:45:32;2.20;;;2.10;;
19456;SDS011;9867;48.094;11.478;2022-08-19T14:48:03;2.47;;;2.07;;
19456;SDS011;9867;48.094;11.478;2022-08-19T14:50:31;1.90;;;1.80;;
19456;SDS011;9867;48.094;11.478;2022-08-19T14:53:00;2.17;;;1.80;;
19456;SDS011;9867;48.094;11.478;2022-08-19T14:55:40;2.20;;;2.10;;
19456;SDS011;9867;48.094;11.478;2022-08-19T14:58:08;2.47;;;2.27;;
19456;SDS011;9867;48.094;11.478;2022-08-19T15:00:57;2.33;;;2.23;;
19456;SDS011;9867;48.094;11.478;2022-08-19T15:03:26;2.50;;;2.30;;
19456;SDS011;9867;48.094;11.478;2022-08-19T15:05:55;2.30;;;2.20;;